Luke — CQOU — position and weather

sailwx.info

Track history (hours):
 
Tides and Currents Weather Stations Pressure Air Temp Water Temp Dewpoint Dewpoint Depression Visibility Wind Speed Wind Dir Waves Ship Positions

Luke

Last reported at 2018-Feb-23 14:30 UTC. Time now 2018-Feb-23 14:53 UTC.
Position N 59°01' E 004°49'.

Length 84 m; draft 6.3 m.

Type: Tanker. MMSI: 255802950.

Date/timePositionNaut miles runAvg speedWind from/ knotsBaromVisibWave heightAir tempDewpointWater temp
2018-Feb-23 14:30N 59°01' E 004°49'611.9
2018-Feb-23 14:00N 59°02' E 004°60'611.7
2018-Feb-23 13:30N 59°03' E 005°11'611.4
2018-Feb-23 13:00N 59°06' E 005°21'611.4
2018-Feb-23 12:30N 59°10' E 005°29'611.3
2018-Feb-23 11:59N 59°15' E 005°30'1 2.0
2018-Feb-23 11:28N 59°16' E 005°30'0 0.0
2018-Feb-23 10:58N 59°16' E 005°30'0 0.0
2018-Feb-23 10:28N 59°16' E 005°30'0 0.0
2018-Feb-23 09:58N 59°16' E 005°30'0 0.0
2018-Feb-23 09:28N 59°16' E 005°30'0 0.0
2018-Feb-23 08:58N 59°16' E 005°30'0 0.0
2018-Feb-23 08:28N 59°16' E 005°30'0 0.0
2018-Feb-23 07:58N 59°16' E 005°30'0 0.0
2018-Feb-23 07:28N 59°16' E 005°30'0 0.0
2018-Feb-23 06:58N 59°16' E 005°30'0 0.0
2018-Feb-23 06:28N 59°16' E 005°30'0 0.0
2018-Feb-23 05:58N 59°16' E 005°30'0 0.0
2018-Feb-23 05:25N 59°16' E 005°30'0 0.0
2018-Feb-23 04:58N 59°16' E 005°30'0 0.0
2018-Feb-23 04:28N 59°16' E 005°30'0 0.0
2018-Feb-23 03:58N 59°16' E 005°30'0 0.0
2018-Feb-23 03:28N 59°16' E 005°30'0 0.0
2018-Feb-23 02:58N 59°16' E 005°30'1 1.1
2018-Feb-23 02:30N 59°16' E 005°30'3 5.4
2018-Feb-23 02:00N 59°13' E 005°32'5 9.3
2018-Feb-23 01:30N 59°09' E 005°31'4 8.3
2018-Feb-23 01:00N 59°06' E 005°25'3 5.6
2018-Feb-23 00:30N 59°04' E 005°21'3 5.6
2018-Feb-23 00:00N 59°01' E 005°20'3 5.5
2018-Feb-22 23:30N 58°58' E 005°20'3 6.0
2018-Feb-22 23:00N 58°55' E 005°20'713.2
2018-Feb-22 22:30N 58°49' E 005°20'713.8
2018-Feb-22 22:00N 58°42' E 005°20'713.9
2018-Feb-22 21:30N 58°35' E 005°19'713.9
2018-Feb-22 21:00N 58°28' E 005°20'714.3
2018-Feb-22 20:29N 58°21' E 005°25'713.8
2018-Feb-22 20:00N 58°15' E 005°29'39512.0
2018-Feb-21 11:13N 51°47' E 003°17'310.7
2018-Feb-21 10:57N 51°45' E 003°14'3 7.2
2018-Feb-21 10:30N 51°42' E 003°17'612.1
2018-Feb-21 10:00N 51°37' E 003°22'612.2
2018-Feb-21 09:30N 51°31' E 003°26'612.8
2018-Feb-21 09:00N 51°27' E 003°33'5 9.6
2018-Feb-21 08:31N 51°25' E 003°40'714.9
2018-Feb-21 08:00N 51°21' E 003°50'713.8
2018-Feb-21 07:30N 51°26' E 003°58'510.9
2018-Feb-21 07:00N 51°22' E 004°05'510.2
2018-Feb-21 06:30N 51°22' E 004°13'5 9.8
2018-Feb-21 06:00N 51°18' E 004°16'1 1.9
2018-Feb-21 05:16N 51°17' E 004°15'0 0.9
2018-Feb-21 05:00N 51°16' E 004°15'1 1.4
2018-Feb-21 04:30N 51°17' E 004°14'0 0.1
2018-Feb-21 02:23N 51°17' E 004°14'0 0.0
2018-Feb-21 00:02N 51°17' E 004°14'0 0.0
2018-Feb-20 19:17N 51°17' E 004°14'0 0.0
2018-Feb-20 17:20N 51°17' E 004°14'0 0.0
2018-Feb-20 08:59N 51°17' E 004°14'0 0.0
2018-Feb-20 08:23N 51°17' E 004°14'0 0.0
2018-Feb-20 07:02N 51°17' E 004°14'0 0.1
2018-Feb-20 06:59N 51°17' E 004°14'0 0.0
2018-Feb-20 06:26N 51°17' E 004°14'0 0.0
2018-Feb-20 05:23N 51°17' E 004°14'0 0.0
2018-Feb-20 04:11N 51°17' E 004°14'0 0.0
2018-Feb-20 03:47N 51°17' E 004°14'0 0.0
2018-Feb-20 03:17N 51°17' E 004°14'0 0.0
2018-Feb-20 01:14N 51°17' E 004°14'0 0.0
2018-Feb-20 00:59N 51°17' E 004°14'0 0.0
2018-Feb-20 00:29N 51°17' E 004°14'0 0.0
2018-Feb-19 23:47N 51°17' E 004°14'0 0.0
2018-Feb-19 23:23N 51°17' E 004°14'0 0.0
2018-Feb-19 04:18N 51°17' E 004°14'0 0.4
2018-Feb-19 04:00N 51°17' E 004°14'1 1.4
2018-Feb-19 03:30N 51°17' E 004°15'0 0.0
2018-Feb-19 03:00N 51°17' E 004°15'1 2.0
2018-Feb-19 02:30N 51°17' E 004°16'4 7.3
2018-Feb-19 02:00N 51°21' E 004°15'5 9.0
2018-Feb-19 01:30N 51°22' E 004°08'510.8
2018-Feb-19 01:00N 51°26' E 004°01'5 9.8
2018-Feb-19 00:30N 51°22' E 003°56'612.0
2018-Feb-19 00:00N 51°21' E 003°46'510.5
2018-Feb-18 23:30N 51°26' E 003°41'4 8.5
2018-Feb-18 23:00N 51°26' E 003°34'612.7
2018-Feb-18 22:31N 51°31' E 003°27'612.3
2018-Feb-18 22:00N 51°36' E 003°22'612.0
2018-Feb-18 21:30N 51°41' E 003°17'5 9.5
2018-Feb-18 20:56N 51°46' E 003°18'2 1.6
2018-Feb-18 19:20N 51°48' E 003°21'0 0.0
2018-Feb-18 18:59N 51°48' E 003°21'0 0.0
2018-Feb-18 12:35N 51°48' E 003°21'0 0.0
2018-Feb-18 12:29N 51°48' E 003°21'0 0.0
2018-Feb-18 11:56N 51°48' E 003°21'0 0.0
2018-Feb-18 11:29N 51°48' E 003°21'0 0.0
2018-Feb-18 10:59N 51°48' E 003°21'0 0.0
2018-Feb-18 10:29N 51°48' E 003°21'0 0.0
2018-Feb-18 09:56N 51°48' E 003°21'0 0.2
2018-Feb-18 09:20N 51°48' E 003°21'1 1.7
2018-Feb-18 09:00N 51°48' E 003°20'510.2
2018-Feb-18 08:31N 51°53' E 003°18'611.9
2018-Feb-18 08:00N 51°59' E 003°19'612.3
2018-Feb-18 07:30N 52°05' E 003°21'612.0
2018-Feb-18 07:00N 52°11' E 003°19'611.4
2018-Feb-18 06:30N 52°17' E 003°18'511.0
2018-Feb-18 06:00N 52°22' E 003°18'810.9
2018-Feb-18 05:17N 52°29' E 003°23'1010.5
2018-Feb-18 04:20N 52°38' E 003°31'1010.5
2018-Feb-18 03:21N 52°46' E 003°42'511.0
2018-Feb-18 02:52N 52°50' E 003°47'711.3
2018-Feb-18 02:13N 52°56' E 003°55'711.5
2018-Feb-18 01:36N 53°00' E 004°04'511.7
2018-Feb-18 01:11N 53°03' E 004°10'311.6
2018-Feb-18 00:55N 53°05' E 004°14'511.8
2018-Feb-18 00:30N 53°09' E 004°20'611.7
2018-Feb-18 00:01N 53°14' E 004°25'10011.6
2018-Feb-17 15:27N 54°47' E 005°23'511.8
2018-Feb-17 14:59N 54°52' E 005°27'612.0
2018-Feb-17 14:31N 54°58' E 005°30'612.0
2018-Feb-17 14:00N 55°04' E 005°33'612.2
2018-Feb-17 13:29N 55°09' E 005°37'1212.0
2018-Feb-17 12:31N 55°21' E 005°43'011.7
2018-Feb-17 12:28N 55°21' E 005°43'17011.7
2018-Feb-16 21:54N 58°11' E 005°22'710.4
2018-Feb-16 21:12N 58°17' E 005°17'211.4
2018-Feb-16 21:00N 58°19' E 005°14'610.4
2018-Feb-16 20:26N 58°25' E 005°11'511.2
2018-Feb-16 20:00N 58°30' E 005°12'510.7
2018-Feb-16 19:31N 58°35' E 005°13'5 9.9
2018-Feb-16 19:00N 58°40' E 005°13'5 9.3
2018-Feb-16 18:30N 58°44' E 005°15'4 8.9
2018-Feb-16 18:00N 58°49' E 005°16'4 9.0
2018-Feb-16 17:30N 58°53' E 005°17'5 9.6
2018-Feb-16 17:00N 58°58' E 005°18'510.2
2018-Feb-16 16:30N 59°03' E 005°19'5 9.9
2018-Feb-16 16:00N 59°07' E 005°25'5 9.4
2018-Feb-16 15:29N 59°11' E 005°31'510.7
2018-Feb-16 15:00N 59°16' E 005°30'0 0.3
2018-Feb-16 14:28N 59°16' E 005°30'0 0.0
2018-Feb-16 13:58N 59°16' E 005°30'0 0.0
2018-Feb-16 13:28N 59°16' E 005°30'0 0.0
2018-Feb-16 12:58N 59°16' E 005°30'0 0.0
2018-Feb-16 12:28N 59°16' E 005°30'0 0.0
2018-Feb-16 11:55N 59°16' E 005°30'0 0.0
2018-Feb-16 11:25N 59°16' E 005°30'0 0.0
2018-Feb-16 10:58N 59°16' E 005°30'0 0.0
2018-Feb-16 10:28N 59°16' E 005°30'0 0.0
2018-Feb-16 09:55N 59°16' E 005°30'0 0.0
2018-Feb-16 09:28N 59°16' E 005°30'0 0.0
2018-Feb-16 08:58N 59°16' E 005°30'0 0.0
2018-Feb-16 08:28N 59°16' E 005°30'0 0.0
2018-Feb-16 07:58N 59°16' E 005°30'0 0.0
2018-Feb-16 07:28N 59°16' E 005°30'0 0.0
2018-Feb-16 06:58N 59°16' E 005°30'0 0.0
2018-Feb-16 06:28N 59°16' E 005°30'0 0.0
2018-Feb-16 05:58N 59°16' E 005°30'0 0.0
2018-Feb-16 05:28N 59°16' E 005°30'0 0.0
2018-Feb-16 04:55N 59°16' E 005°30'0 0.0
2018-Feb-16 04:28N 59°16' E 005°30'0 0.0
2018-Feb-16 03:58N 59°16' E 005°30'0 0.0
2018-Feb-16 03:28N 59°16' E 005°30'0 0.0
2018-Feb-16 02:58N 59°16' E 005°30'0 0.0
2018-Feb-16 02:28N 59°16' E 005°30'0 0.0
2018-Feb-16 01:58N 59°16' E 005°30'0 0.0
2018-Feb-16 01:28N 59°16' E 005°30'0 0.0
2018-Feb-16 00:58N 59°16' E 005°30'0 0.1
2018-Feb-16 00:30N 59°16' E 005°30'3 5.3
2018-Feb-16 00:00N 59°14' E 005°31'0 0.3
2018-Feb-15 23:28N 59°14' E 005°31'0 0.0
2018-Feb-15 22:58N 59°14' E 005°31'0 0.0
2018-Feb-15 22:28N 59°14' E 005°31'0 0.0
2018-Feb-15 21:58N 59°14' E 005°31'0 0.0
2018-Feb-15 21:28N 59°14' E 005°31'0 0.0
2018-Feb-15 20:58N 59°14' E 005°31'0 0.0
2018-Feb-15 20:28N 59°14' E 005°31'0 0.0
2018-Feb-15 19:58N 59°14' E 005°31'0 0.0
2018-Feb-15 19:28N 59°14' E 005°31'0 0.0
2018-Feb-15 18:58N 59°14' E 005°31'0 0.0
2018-Feb-15 18:28N 59°14' E 005°31'0 0.0
2018-Feb-15 17:58N 59°14' E 005°31'0 0.0
2018-Feb-15 17:28N 59°14' E 005°31'0 0.0
2018-Feb-15 16:58N 59°14' E 005°31'0 0.0
2018-Feb-15 16:28N 59°14' E 005°31'0 0.0
2018-Feb-15 15:58N 59°14' E 005°31'0 0.0
2018-Feb-15 15:28N 59°14' E 005°31'0 0.0
2018-Feb-15 14:58N 59°14' E 005°31'0 0.0
2018-Feb-15 14:28N 59°14' E 005°31'0 0.0
2018-Feb-15 13:58N 59°14' E 005°31'0 0.0
2018-Feb-15 13:28N 59°14' E 005°31'0 0.1
2018-Feb-15 12:58N 59°14' E 005°31'0 0.0
2018-Feb-15 12:28N 59°14' E 005°31'0 0.0
2018-Feb-15 11:58N 59°14' E 005°31'0 0.0
2018-Feb-15 11:28N 59°14' E 005°31'0 0.0
2018-Feb-15 10:58N 59°14' E 005°31'0 0.0
2018-Feb-15 10:28N 59°14' E 005°31'0 0.0
2018-Feb-15 09:58N 59°14' E 005°31'0 0.0
2018-Feb-15 09:28N 59°14' E 005°31'0 0.0
2018-Feb-15 08:58N 59°14' E 005°31'0 0.0
2018-Feb-15 08:28N 59°14' E 005°31'0 0.0
2018-Feb-15 07:58N 59°14' E 005°31'0 0.0
2018-Feb-15 07:28N 59°14' E 005°31'0 0.0
2018-Feb-15 06:58N 59°14' E 005°31'0 0.0
2018-Feb-15 06:28N 59°14' E 005°31'0 0.0
2018-Feb-15 05:58N 59°14' E 005°31'0 0.0
2018-Feb-15 05:28N 59°14' E 005°31'0 0.0
2018-Feb-15 04:58N 59°14' E 005°31'0 0.0
2018-Feb-15 04:28N 59°14' E 005°31'0 0.0
2018-Feb-15 03:58N 59°14' E 005°31'0 0.0
2018-Feb-15 03:28N 59°14' E 005°31'0 0.0
2018-Feb-15 02:58N 59°14' E 005°31'0 0.0
2018-Feb-15 02:28N 59°14' E 005°31'0 0.0
2018-Feb-15 01:58N 59°14' E 005°31'0 0.0
2018-Feb-15 01:28N 59°14' E 005°31'0 0.0
2018-Feb-15 00:58N 59°14' E 005°31'0 0.0
2018-Feb-15 00:28N 59°14' E 005°31'0 0.0
2018-Feb-14 23:58N 59°14' E 005°31'0 0.0
2018-Feb-14 23:28N 59°14' E 005°31'0 0.0
2018-Feb-14 22:58N 59°14' E 005°31'0 0.0
2018-Feb-14 22:28N 59°14' E 005°31'0 0.0
2018-Feb-14 21:58N 59°14' E 005°31'0 0.0
2018-Feb-14 21:28N 59°14' E 005°31'0 0.0
2018-Feb-14 20:58N 59°14' E 005°31'0 0.0
2018-Feb-14 20:28N 59°14' E 005°31'0 0.0
2018-Feb-14 19:58N 59°14' E 005°31'0 0.0
2018-Feb-14 19:28N 59°14' E 005°31'0 0.0
2018-Feb-14 18:58N 59°14' E 005°31'0 0.0
2018-Feb-14 18:28N 59°14' E 005°31'0 0.0
2018-Feb-14 17:58N 59°14' E 005°31'0 0.0
2018-Feb-14 17:28N 59°14' E 005°31'0 0.0
2018-Feb-14 16:58N 59°14' E 005°31'0 0.0
2018-Feb-14 16:28N 59°14' E 005°31'0 0.0
2018-Feb-14 15:58N 59°14' E 005°31'0 0.0
2018-Feb-14 15:28N 59°14' E 005°31'0 0.0
2018-Feb-14 14:58N 59°14' E 005°31'0 0.0
2018-Feb-14 14:28N 59°14' E 005°31'0 0.0
2018-Feb-14 13:58N 59°14' E 005°31'0 0.0
2018-Feb-14 13:28N 59°14' E 005°31'0 0.0
2018-Feb-14 12:58N 59°14' E 005°31'0 0.0
2018-Feb-14 12:28N 59°14' E 005°31'0 0.0
2018-Feb-14 11:58N 59°14' E 005°31'0 0.0
2018-Feb-14 11:28N 59°14' E 005°31'0 0.0
2018-Feb-14 10:58N 59°14' E 005°31'0 0.0
2018-Feb-14 10:28N 59°14' E 005°31'0 0.0
2018-Feb-14 09:58N 59°14' E 005°31'0 0.0
2018-Feb-14 09:28N 59°14' E 005°31'0 0.0
2018-Feb-14 08:58N 59°14' E 005°31'0 0.0
2018-Feb-14 08:28N 59°14' E 005°31'0 0.0
2018-Feb-14 07:58N 59°14' E 005°31'0 0.0
2018-Feb-14 07:28N 59°14' E 005°31'0 0.0
2018-Feb-14 06:58N 59°14' E 005°31'0 0.0
2018-Feb-14 06:28N 59°14' E 005°31'0 0.0
2018-Feb-14 05:58N 59°14' E 005°31'0 0.0
2018-Feb-14 05:28N 59°14' E 005°31'0 0.0
2018-Feb-14 04:58N 59°14' E 005°31'0 0.0
2018-Feb-14 04:28N 59°14' E 005°31'0 0.0
2018-Feb-14 03:58N 59°14' E 005°31'0 0.0
2018-Feb-14 03:28N 59°14' E 005°31'0 0.0
2018-Feb-14 02:58N 59°14' E 005°31'0 0.0
2018-Feb-14 02:28N 59°14' E 005°31'0 0.0
2018-Feb-14 01:58N 59°14' E 005°31'0 0.0
2018-Feb-14 01:28N 59°14' E 005°31'0 0.0
2018-Feb-14 00:58N 59°14' E 005°31'0 0.0
2018-Feb-14 00:28N 59°14' E 005°31'0 0.0
2018-Feb-13 23:58N 59°14' E 005°31'0 0.0
2018-Feb-13 23:28N 59°14' E 005°31'0 0.0
2018-Feb-13 22:58N 59°14' E 005°31'0 0.0
2018-Feb-13 22:28N 59°14' E 005°31'0 0.0
2018-Feb-13 21:58N 59°14' E 005°31'0 0.0
2018-Feb-13 21:28N 59°14' E 005°31'0 0.0
2018-Feb-13 20:58N 59°14' E 005°31'0 0.0
2018-Feb-13 20:28N 59°14' E 005°31'0 0.0
2018-Feb-13 19:58N 59°14' E 005°31'0 0.0
2018-Feb-13 19:28N 59°14' E 005°31'0 0.0
2018-Feb-13 18:58N 59°14' E 005°31'0 0.0
2018-Feb-13 18:28N 59°14' E 005°31'0 0.0
2018-Feb-13 17:58N 59°14' E 005°31'0 0.0
2018-Feb-13 17:28N 59°14' E 005°31'0 0.0
2018-Feb-13 16:58N 59°14' E 005°31'0 0.1
2018-Feb-13 16:28N 59°14' E 005°31'0 0.1
2018-Feb-13 15:58N 59°14' E 005°31'0 0.0
2018-Feb-13 15:28N 59°14' E 005°31'0 0.0
2018-Feb-13 14:58N 59°14' E 005°31'  
Track history (hours):
 
Tides and Currents Weather Stations Pressure Air Temp Water Temp Dewpoint Dewpoint Depression Visibility Wind Speed Wind Dir Waves Ship Positions

Luke

Last reported at 2018-Feb-23 14:30 UTC. Time now 2018-Feb-23 14:53 UTC.
Position N 59°01' E 004°49'.

Length 84 m; draft 6.3 m.

Type: Tanker. MMSI: 255802950.

Date/timePositionNaut miles runAvg speedWind from/ knotsBaromVisibWave heightAir tempDewpointWater temp
2018-Feb-23 14:30N 59°01' E 004°49'611.9
2018-Feb-23 14:00N 59°02' E 004°60'611.7
2018-Feb-23 13:30N 59°03' E 005°11'611.4
2018-Feb-23 13:00N 59°06' E 005°21'611.4
2018-Feb-23 12:30N 59°10' E 005°29'611.3
2018-Feb-23 11:59N 59°15' E 005°30'1 2.0
2018-Feb-23 11:28N 59°16' E 005°30'0 0.0
2018-Feb-23 10:58N 59°16' E 005°30'0 0.0
2018-Feb-23 10:28N 59°16' E 005°30'0 0.0
2018-Feb-23 09:58N 59°16' E 005°30'0 0.0
2018-Feb-23 09:28N 59°16' E 005°30'0 0.0
2018-Feb-23 08:58N 59°16' E 005°30'0 0.0
2018-Feb-23 08:28N 59°16' E 005°30'0 0.0
2018-Feb-23 07:58N 59°16' E 005°30'0 0.0
2018-Feb-23 07:28N 59°16' E 005°30'0 0.0
2018-Feb-23 06:58N 59°16' E 005°30'0 0.0
2018-Feb-23 06:28N 59°16' E 005°30'0 0.0
2018-Feb-23 05:58N 59°16' E 005°30'0 0.0
2018-Feb-23 05:25N 59°16' E 005°30'0 0.0
2018-Feb-23 04:58N 59°16' E 005°30'0 0.0
2018-Feb-23 04:28N 59°16' E 005°30'0 0.0
2018-Feb-23 03:58N 59°16' E 005°30'0 0.0
2018-Feb-23 03:28N 59°16' E 005°30'0 0.0
2018-Feb-23 02:58N 59°16' E 005°30'1 1.1
2018-Feb-23 02:30N 59°16' E 005°30'3 5.4
2018-Feb-23 02:00N 59°13' E 005°32'5 9.3
2018-Feb-23 01:30N 59°09' E 005°31'4 8.3
2018-Feb-23 01:00N 59°06' E 005°25'3 5.6
2018-Feb-23 00:30N 59°04' E 005°21'3 5.6
2018-Feb-23 00:00N 59°01' E 005°20'3 5.5
2018-Feb-22 23:30N 58°58' E 005°20'3 6.0
2018-Feb-22 23:00N 58°55' E 005°20'713.2
2018-Feb-22 22:30N 58°49' E 005°20'713.8
2018-Feb-22 22:00N 58°42' E 005°20'713.9
2018-Feb-22 21:30N 58°35' E 005°19'713.9
2018-Feb-22 21:00N 58°28' E 005°20'714.3
2018-Feb-22 20:29N 58°21' E 005°25'713.8
2018-Feb-22 20:00N 58°15' E 005°29'39512.0
2018-Feb-21 11:13N 51°47' E 003°17'310.7
2018-Feb-21 10:57N 51°45' E 003°14'3 7.2
2018-Feb-21 10:30N 51°42' E 003°17'612.1
2018-Feb-21 10:00N 51°37' E 003°22'612.2
2018-Feb-21 09:30N 51°31' E 003°26'612.8
2018-Feb-21 09:00N 51°27' E 003°33'5 9.6
2018-Feb-21 08:31N 51°25' E 003°40'714.9
2018-Feb-21 08:00N 51°21' E 003°50'713.8
2018-Feb-21 07:30N 51°26' E 003°58'510.9
2018-Feb-21 07:00N 51°22' E 004°05'510.2
2018-Feb-21 06:30N 51°22' E 004°13'5 9.8
2018-Feb-21 06:00N 51°18' E 004°16'1 1.9
2018-Feb-21 05:16N 51°17' E 004°15'0 0.9
2018-Feb-21 05:00N 51°16' E 004°15'1 1.4
2018-Feb-21 04:30N 51°17' E 004°14'0 0.1
2018-Feb-21 02:23N 51°17' E 004°14'0 0.0
2018-Feb-21 00:02N 51°17' E 004°14'0 0.0
2018-Feb-20 19:17N 51°17' E 004°14'0 0.0
2018-Feb-20 17:20N 51°17' E 004°14'0 0.0
2018-Feb-20 08:59N 51°17' E 004°14'0 0.0
2018-Feb-20 08:23N 51°17' E 004°14'0 0.0
2018-Feb-20 07:02N 51°17' E 004°14'0 0.1
2018-Feb-20 06:59N 51°17' E 004°14'0 0.0
2018-Feb-20 06:26N 51°17' E 004°14'0 0.0
2018-Feb-20 05:23N 51°17' E 004°14'0 0.0
2018-Feb-20 04:11N 51°17' E 004°14'0 0.0
2018-Feb-20 03:47N 51°17' E 004°14'0 0.0
2018-Feb-20 03:17N 51°17' E 004°14'0 0.0
2018-Feb-20 01:14N 51°17' E 004°14'0 0.0
2018-Feb-20 00:59N 51°17' E 004°14'0 0.0
2018-Feb-20 00:29N 51°17' E 004°14'0 0.0
2018-Feb-19 23:47N 51°17' E 004°14'0 0.0
2018-Feb-19 23:23N 51°17' E 004°14'0 0.0
2018-Feb-19 04:18N 51°17' E 004°14'0 0.4
2018-Feb-19 04:00N 51°17' E 004°14'1 1.4
2018-Feb-19 03:30N 51°17' E 004°15'0 0.0
2018-Feb-19 03:00N 51°17' E 004°15'1 2.0
2018-Feb-19 02:30N 51°17' E 004°16'4 7.3
2018-Feb-19 02:00N 51°21' E 004°15'5 9.0
2018-Feb-19 01:30N 51°22' E 004°08'510.8
2018-Feb-19 01:00N 51°26' E 004°01'5 9.8
2018-Feb-19 00:30N 51°22' E 003°56'612.0
2018-Feb-19 00:00N 51°21' E 003°46'510.5
2018-Feb-18 23:30N 51°26' E 003°41'4 8.5
2018-Feb-18 23:00N 51°26' E 003°34'612.7
2018-Feb-18 22:31N 51°31' E 003°27'612.3
2018-Feb-18 22:00N 51°36' E 003°22'612.0
2018-Feb-18 21:30N 51°41' E 003°17'5 9.5
2018-Feb-18 20:56N 51°46' E 003°18'2 1.6
2018-Feb-18 19:20N 51°48' E 003°21'0 0.0
2018-Feb-18 18:59N 51°48' E 003°21'0 0.0
2018-Feb-18 12:35N 51°48' E 003°21'0 0.0
2018-Feb-18 12:29N 51°48' E 003°21'0 0.0
2018-Feb-18 11:56N 51°48' E 003°21'0 0.0
2018-Feb-18 11:29N 51°48' E 003°21'0 0.0
2018-Feb-18 10:59N 51°48' E 003°21'0 0.0
2018-Feb-18 10:29N 51°48' E 003°21'0 0.0
2018-Feb-18 09:56N 51°48' E 003°21'0 0.2
2018-Feb-18 09:20N 51°48' E 003°21'1 1.7
2018-Feb-18 09:00N 51°48' E 003°20'510.2
2018-Feb-18 08:31N 51°53' E 003°18'611.9
2018-Feb-18 08:00N 51°59' E 003°19'612.3
2018-Feb-18 07:30N 52°05' E 003°21'612.0
2018-Feb-18 07:00N 52°11' E 003°19'611.4
2018-Feb-18 06:30N 52°17' E 003°18'511.0
2018-Feb-18 06:00N 52°22' E 003°18'810.9
2018-Feb-18 05:17N 52°29' E 003°23'1010.5
2018-Feb-18 04:20N 52°38' E 003°31'1010.5
2018-Feb-18 03:21N 52°46' E 003°42'511.0
2018-Feb-18 02:52N 52°50' E 003°47'711.3
2018-Feb-18 02:13N 52°56' E 003°55'711.5
2018-Feb-18 01:36N 53°00' E 004°04'511.7
2018-Feb-18 01:11N 53°03' E 004°10'311.6
2018-Feb-18 00:55N 53°05' E 004°14'511.8
2018-Feb-18 00:30N 53°09' E 004°20'611.7
2018-Feb-18 00:01N 53°14' E 004°25'10011.6
2018-Feb-17 15:27N 54°47' E 005°23'511.8
2018-Feb-17 14:59N 54°52' E 005°27'612.0
2018-Feb-17 14:31N 54°58' E 005°30'612.0
2018-Feb-17 14:00N 55°04' E 005°33'612.2
2018-Feb-17 13:29N 55°09' E 005°37'1212.0
2018-Feb-17 12:31N 55°21' E 005°43'011.7
2018-Feb-17 12:28N 55°21' E 005°43'17011.7
2018-Feb-16 21:54N 58°11' E 005°22'710.4
2018-Feb-16 21:12N 58°17' E 005°17'211.4
2018-Feb-16 21:00N 58°19' E 005°14'610.4
2018-Feb-16 20:26N 58°25' E 005°11'511.2
2018-Feb-16 20:00N 58°30' E 005°12'510.7
2018-Feb-16 19:31N 58°35' E 005°13'5 9.9
2018-Feb-16 19:00N 58°40' E 005°13'5 9.3
2018-Feb-16 18:30N 58°44' E 005°15'4 8.9
2018-Feb-16 18:00N 58°49' E 005°16'4 9.0
2018-Feb-16 17:30N 58°53' E 005°17'5 9.6
2018-Feb-16 17:00N 58°58' E 005°18'510.2
2018-Feb-16 16:30N 59°03' E 005°19'5 9.9
2018-Feb-16 16:00N 59°07' E 005°25'5 9.4
2018-Feb-16 15:29N 59°11' E 005°31'510.7
2018-Feb-16 15:00N 59°16' E 005°30'0 0.3
2018-Feb-16 14:28N 59°16' E 005°30'0 0.0
2018-Feb-16 13:58N 59°16' E 005°30'0 0.0
2018-Feb-16 13:28N 59°16' E 005°30'0 0.0
2018-Feb-16 12:58N 59°16' E 005°30'0 0.0
2018-Feb-16 12:28N 59°16' E 005°30'0 0.0
2018-Feb-16 11:55N 59°16' E 005°30'0 0.0
2018-Feb-16 11:25N 59°16' E 005°30'0 0.0
2018-Feb-16 10:58N 59°16' E 005°30'0 0.0
2018-Feb-16 10:28N 59°16' E 005°30'0 0.0
2018-Feb-16 09:55N 59°16' E 005°30'0 0.0
2018-Feb-16 09:28N 59°16' E 005°30'0 0.0
2018-Feb-16 08:58N 59°16' E 005°30'0 0.0
2018-Feb-16 08:28N 59°16' E 005°30'0 0.0
2018-Feb-16 07:58N 59°16' E 005°30'0 0.0
2018-Feb-16 07:28N 59°16' E 005°30'0 0.0
2018-Feb-16 06:58N 59°16' E 005°30'0 0.0
2018-Feb-16 06:28N 59°16' E 005°30'0 0.0
2018-Feb-16 05:58N 59°16' E 005°30'0 0.0
2018-Feb-16 05:28N 59°16' E 005°30'0 0.0
2018-Feb-16 04:55N 59°16' E 005°30'0 0.0
2018-Feb-16 04:28N 59°16' E 005°30'0 0.0
2018-Feb-16 03:58N 59°16' E 005°30'0 0.0
2018-Feb-16 03:28N 59°16' E 005°30'0 0.0
2018-Feb-16 02:58N 59°16' E 005°30'0 0.0
2018-Feb-16 02:28N 59°16' E 005°30'0 0.0
2018-Feb-16 01:58N 59°16' E 005°30'0 0.0
2018-Feb-16 01:28N 59°16' E 005°30'0 0.0
2018-Feb-16 00:58N 59°16' E 005°30'0 0.1
2018-Feb-16 00:30N 59°16' E 005°30'3 5.3
2018-Feb-16 00:00N 59°14' E 005°31'0 0.3
2018-Feb-15 23:28N 59°14' E 005°31'0 0.0
2018-Feb-15 22:58N 59°14' E 005°31'0 0.0
2018-Feb-15 22:28N 59°14' E 005°31'0 0.0
2018-Feb-15 21:58N 59°14' E 005°31'0 0.0
2018-Feb-15 21:28N 59°14' E 005°31'0 0.0
2018-Feb-15 20:58N 59°14' E 005°31'0 0.0
2018-Feb-15 20:28N 59°14' E 005°31'0 0.0
2018-Feb-15 19:58N 59°14' E 005°31'0 0.0
2018-Feb-15 19:28N 59°14' E 005°31'0 0.0
2018-Feb-15 18:58N 59°14' E 005°31'0 0.0
2018-Feb-15 18:28N 59°14' E 005°31'0 0.0
2018-Feb-15 17:58N 59°14' E 005°31'0 0.0
2018-Feb-15 17:28N 59°14' E 005°31'0 0.0
2018-Feb-15 16:58N 59°14' E 005°31'0 0.0
2018-Feb-15 16:28N 59°14' E 005°31'0 0.0
2018-Feb-15 15:58N 59°14' E 005°31'0 0.0
2018-Feb-15 15:28N 59°14' E 005°31'0 0.0
2018-Feb-15 14:58N 59°14' E 005°31'0 0.0
2018-Feb-15 14:28N 59°14' E 005°31'0 0.0
2018-Feb-15 13:58N 59°14' E 005°31'0 0.0
2018-Feb-15 13:28N 59°14' E 005°31'0 0.1
2018-Feb-15 12:58N 59°14' E 005°31'0 0.0
2018-Feb-15 12:28N 59°14' E 005°31'0 0.0
2018-Feb-15 11:58N 59°14' E 005°31'0 0.0
2018-Feb-15 11:28N 59°14' E 005°31'0 0.0
2018-Feb-15 10:58N 59°14' E 005°31'0 0.0
2018-Feb-15 10:28N 59°14' E 005°31'0 0.0
2018-Feb-15 09:58N 59°14' E 005°31'0 0.0
2018-Feb-15 09:28N 59°14' E 005°31'0 0.0
2018-Feb-15 08:58N 59°14' E 005°31'0 0.0
2018-Feb-15 08:28N 59°14' E 005°31'0 0.0
2018-Feb-15 07:58N 59°14' E 005°31'0 0.0
2018-Feb-15 07:28N 59°14' E 005°31'0 0.0
2018-Feb-15 06:58N 59°14' E 005°31'0 0.0
2018-Feb-15 06:28N 59°14' E 005°31'0 0.0
2018-Feb-15 05:58N 59°14' E 005°31'0 0.0
2018-Feb-15 05:28N 59°14' E 005°31'0 0.0
2018-Feb-15 04:58N 59°14' E 005°31'0 0.0
2018-Feb-15 04:28N 59°14' E 005°31'0 0.0
2018-Feb-15 03:58N 59°14' E 005°31'0 0.0
2018-Feb-15 03:28N 59°14' E 005°31'0 0.0
2018-Feb-15 02:58N 59°14' E 005°31'0 0.0
2018-Feb-15 02:28N 59°14' E 005°31'0 0.0
2018-Feb-15 01:58N 59°14' E 005°31'0 0.0
2018-Feb-15 01:28N 59°14' E 005°31'0 0.0
2018-Feb-15 00:58N 59°14' E 005°31'0 0.0
2018-Feb-15 00:28N 59°14' E 005°31'0 0.0
2018-Feb-14 23:58N 59°14' E 005°31'0 0.0
2018-Feb-14 23:28N 59°14' E 005°31'0 0.0
2018-Feb-14 22:58N 59°14' E 005°31'0 0.0
2018-Feb-14 22:28N 59°14' E 005°31'0 0.0
2018-Feb-14 21:58N 59°14' E 005°31'0 0.0
2018-Feb-14 21:28N 59°14' E 005°31'0 0.0
2018-Feb-14 20:58N 59°14' E 005°31'0 0.0
2018-Feb-14 20:28N 59°14' E 005°31'0 0.0
2018-Feb-14 19:58N 59°14' E 005°31'0 0.0
2018-Feb-14 19:28N 59°14' E 005°31'0 0.0
2018-Feb-14 18:58N 59°14' E 005°31'0 0.0
2018-Feb-14 18:28N 59°14' E 005°31'0 0.0
2018-Feb-14 17:58N 59°14' E 005°31'0 0.0
2018-Feb-14 17:28N 59°14' E 005°31'0 0.0
2018-Feb-14 16:58N 59°14' E 005°31'0 0.0
2018-Feb-14 16:28N 59°14' E 005°31'0 0.0
2018-Feb-14 15:58N 59°14' E 005°31'0 0.0
2018-Feb-14 15:28N 59°14' E 005°31'0 0.0
2018-Feb-14 14:58N 59°14' E 005°31'0 0.0
2018-Feb-14 14:28N 59°14' E 005°31'0 0.0
2018-Feb-14 13:58N 59°14' E 005°31'0 0.0
2018-Feb-14 13:28N 59°14' E 005°31'0 0.0
2018-Feb-14 12:58N 59°14' E 005°31'0 0.0
2018-Feb-14 12:28N 59°14' E 005°31'0 0.0
2018-Feb-14 11:58N 59°14' E 005°31'0 0.0
2018-Feb-14 11:28N 59°14' E 005°31'0 0.0
2018-Feb-14 10:58N 59°14' E 005°31'0 0.0
2018-Feb-14 10:28N 59°14' E 005°31'0 0.0
2018-Feb-14 09:58N 59°14' E 005°31'0 0.0
2018-Feb-14 09:28N 59°14' E 005°31'0 0.0
2018-Feb-14 08:58N 59°14' E 005°31'0 0.0
2018-Feb-14 08:28N 59°14' E 005°31'0 0.0
2018-Feb-14 07:58N 59°14' E 005°31'0 0.0
2018-Feb-14 07:28N 59°14' E 005°31'0 0.0
2018-Feb-14 06:58N 59°14' E 005°31'0 0.0
2018-Feb-14 06:28N 59°14' E 005°31'0 0.0
2018-Feb-14 05:58N 59°14' E 005°31'0 0.0
2018-Feb-14 05:28N 59°14' E 005°31'0 0.0
2018-Feb-14 04:58N 59°14' E 005°31'0 0.0
2018-Feb-14 04:28N 59°14' E 005°31'0 0.0
2018-Feb-14 03:58N 59°14' E 005°31'0 0.0
2018-Feb-14 03:28N 59°14' E 005°31'0 0.0
2018-Feb-14 02:58N 59°14' E 005°31'0 0.0
2018-Feb-14 02:28N 59°14' E 005°31'0 0.0
2018-Feb-14 01:58N 59°14' E 005°31'0 0.0
2018-Feb-14 01:28N 59°14' E 005°31'0 0.0
2018-Feb-14 00:58N 59°14' E 005°31'0 0.0
2018-Feb-14 00:28N 59°14' E 005°31'0 0.0
2018-Feb-13 23:58N 59°14' E 005°31'0 0.0
2018-Feb-13 23:28N 59°14' E 005°31'0 0.0
2018-Feb-13 22:58N 59°14' E 005°31'0 0.0
2018-Feb-13 22:28N 59°14' E 005°31'0 0.0
2018-Feb-13 21:58N 59°14' E 005°31'0 0.0
2018-Feb-13 21:28N 59°14' E 005°31'0 0.0
2018-Feb-13 20:58N 59°14' E 005°31'0 0.0
2018-Feb-13 20:28N 59°14' E 005°31'0 0.0
2018-Feb-13 19:58N 59°14' E 005°31'0 0.0
2018-Feb-13 19:28N 59°14' E 005°31'0 0.0
2018-Feb-13 18:58N 59°14' E 005°31'0 0.0
2018-Feb-13 18:28N 59°14' E 005°31'0 0.0
2018-Feb-13 17:58N 59°14' E 005°31'0 0.0
2018-Feb-13 17:28N 59°14' E 005°31'0 0.0
2018-Feb-13 16:58N 59°14' E 005°31'0 0.1
2018-Feb-13 16:28N 59°14' E 005°31'0 0.1
2018-Feb-13 15:58N 59°14' E 005°31'0 0.0
2018-Feb-13 15:28N 59°14' E 005°31'0 0.0
2018-Feb-13 14:58N 59°14' E 005°31'  

Dump ship's entire track history